KWVI/WVI METAR and TAF weather

Enter ICAO airport designator
Station Type Date Time Source
KWVI METAR 2019/10/23 19:53 UTC NOAA

KWVI 231953Z AUTO 21008KT 10SM CLR 28/09 A2997 RMK AO2 SLP146 T02780089


Station Type Date Time Source
KWVI Decoded METAR 2019/10/23 19:53 UTC NOAA

WATSONVILLE MUNICIPAL AIRPORT , CA, United States (KWVI) 36-56N 121-47W 43M
Oct 23, 2019 - 03:53 PM EDT / 2019.10.23 1953 UTC
Wind: from the SSW (210 degrees) at 9 MPH (8 KT):0
Visibility: 10 mile(s):0
Sky conditions: clear
Temperature: 82.0 F (27.8 C)
Dew Point: 48.0 F (8.9 C)
Relative Humidity: 30%
Pressure (altimeter): 29.97 in. Hg (1014 hPa)
ob: KWVI 231953Z AUTO 21008KT 10SM CLR 28/09 A2997 RMK AO2 SLP146 T02780089
cycle: 20

Station Type Date Time Source
KWVI TAF UTC NOAA

Error!

Example: see airport list